Time;durP1;ratioP1;P1;durP2;ratioP2;P2;SDS_P1;SDS_P2;PMS_P1;PMS_P2;Temp;Humidity;BMP_temperature;BMP_pressure;BME280_temperature;BME280_humidity;BME280_pressure;Samples;Min_cycle;Max_cycle;Signal;HPM_P1;HPM_P2
2022/03/11 00:00:04;;;;;;;8.90;5.70;;;5.90;67.90;;;;;;4979813;28;20638;-87
2022/03/11 00:02:31;;;;;;;8.35;5.57;;;5.70;67.90;;;;;;4988441;28;20205;-85
2022/03/11 00:04:59;;;;;;;11.45;5.60;;;5.90;67.90;;;;;;4987199;28;20308;-85
2022/03/11 00:07:26;;;;;;;12.60;5.97;;;5.50;68.00;;;;;;4981192;28;20303;-87
2022/03/11 00:09:52;;;;;;;10.18;5.78;;;5.70;68.80;;;;;;4980104;28;20211;-87
2022/03/11 00:12:19;;;;;;;9.55;6.10;;;5.70;69.70;;;;;;4979158;28;20233;-87
2022/03/11 00:14:46;;;;;;;14.52;7.25;;;5.70;69.90;;;;;;4978679;28;20209;-87
2022/03/11 00:17:14;;;;;;;9.65;6.55;;;5.70;69.90;;;;;;4979381;28;20209;-87
2022/03/11 00:19:41;;;;;;;14.00;7.00;;;5.50;69.40;;;;;;4979100;28;20295;-87
2022/03/11 00:22:08;;;;;;;10.40;6.32;;;5.50;69.50;;;;;;4980039;28;20304;-87
2022/03/11 00:24:35;;;;;;;9.85;6.20;;;5.40;69.80;;;;;;4980436;28;20291;-86
2022/03/11 00:27:02;;;;;;;11.82;6.47;;;5.20;69.80;;;;;;4979015;28;20236;-85
2022/03/11 00:29:29;;;;;;;9.95;6.35;;;5.30;70.40;;;;;;4979993;28;20212;-86
2022/03/11 00:31:56;;;;;;;9.55;5.65;;;5.20;70.60;;;;;;4980763;28;20312;-85
2022/03/11 00:34:24;;;;;;;10.85;6.47;;;5.30;70.90;;;;;;4978423;28;20276;-86
2022/03/11 00:36:51;;;;;;;11.95;6.82;;;5.40;71.30;;;;;;4979094;28;20307;-85
2022/03/11 00:39:18;;;;;;;7.85;5.03;;;5.40;71.50;;;;;;4993530;28;20263;-87
2022/03/11 00:41:47;;;;;;;10.50;5.63;;;5.20;72.20;;;;;;4997721;28;20215;-86
2022/03/11 00:44:14;;;;;;;8.70;5.25;;;5.00;71.20;;;;;;4990622;28;20217;-86
2022/03/11 00:46:41;;;;;;;10.25;5.93;;;5.40;72.00;;;;;;4981734;28;20240;-87
2022/03/11 00:49:08;;;;;;;9.20;5.70;;;5.40;72.40;;;;;;4987050;28;20259;-87
2022/03/11 00:51:36;;;;;;;9.05;5.50;;;5.10;72.40;;;;;;4996041;28;20243;-87
2022/03/11 00:54:03;;;;;;;7.93;4.95;;;5.10;72.80;;;;;;4981429;28;20276;-87
2022/03/11 00:56:31;;;;;;;9.85;5.97;;;5.00;72.70;;;;;;4981449;28;20295;-86
2022/03/11 00:58:58;;;;;;;10.20;6.60;;;5.10;73.10;;;;;;4979940;28;20232;-87
2022/03/11 01:01:24;;;;;;;10.05;5.40;;;5.20;73.80;;;;;;4979530;28;20205;-86
2022/03/11 01:03:52;;;;;;;11.48;5.97;;;5.00;74.80;;;;;;4979776;28;20297;-86
2022/03/11 01:06:19;;;;;;;9.93;6.30;;;5.10;74.30;;;;;;4981208;28;20299;-85
2022/03/11 01:08:50;;;;;;;11.75;6.72;;;5.10;74.80;;;;;;4982683;28;20228;-86
2022/03/11 01:11:16;;;;;;;8.48;6.00;;;4.40;74.70;;;;;;4979657;28;20308;-84
2022/03/11 01:13:43;;;;;;;9.50;5.25;;;5.00;75.20;;;;;;4979951;28;20213;-86
2022/03/11 01:16:10;;;;;;;9.05;5.70;;;5.10;75.30;;;;;;4985676;28;20235;-85
2022/03/11 01:18:37;;;;;;;11.02;6.63;;;5.00;75.70;;;;;;4994170;28;20220;-86
2022/03/11 01:21:04;;;;;;;10.60;6.03;;;5.00;76.40;;;;;;4999047;28;20252;-85
2022/03/11 01:23:31;;;;;;;10.32;5.50;;;5.00;76.70;;;;;;4998846;28;20248;-84
2022/03/11 01:25:59;;;;;;;9.30;5.65;;;4.80;77.00;;;;;;5001451;28;20204;-83
2022/03/11 01:28:26;;;;;;;9.43;6.20;;;4.80;77.50;;;;;;5002588;28;20217;-84
2022/03/11 01:30:53;;;;;;;10.50;6.40;;;4.70;77.50;;;;;;5002549;28;20242;-84
2022/03/11 01:33:20;;;;;;;9.10;5.82;;;4.80;77.70;;;;;;5000131;28;20216;-85
2022/03/11 01:35:50;;;;;;;10.60;6.03;;;4.80;78.10;;;;;;4998292;28;20204;-85
2022/03/11 01:38:20;;;;;;;13.25;6.47;;;4.90;78.50;;;;;;4993979;28;20252;-86
2022/03/11 01:40:49;;;;;;;12.98;6.82;;;4.70;78.60;;;;;;4991002;28;20264;-86
2022/03/11 01:43:18;;;;;;;15.73;6.38;;;4.30;78.70;;;;;;4985567;28;20205;-86
2022/03/11 01:45:45;;;;;;;11.38;6.80;;;4.70;79.90;;;;;;4985246;28;20296;-85
2022/03/11 01:48:12;;;;;;;11.05;6.53;;;4.20;80.00;;;;;;4985167;28;20728;-85
2022/03/11 01:50:40;;;;;;;10.50;6.82;;;4.40;81.20;;;;;;4984786;28;20731;-86
2022/03/11 01:53:10;;;;;;;13.73;7.50;;;4.50;81.80;;;;;;4983464;28;20229;-87
2022/03/11 01:55:37;;;;;;;12.38;7.10;;;4.60;82.30;;;;;;4984165;28;20300;-86
2022/03/11 01:58:06;;;;;;;10.90;7.47;;;4.70;82.70;;;;;;4981910;28;20231;-87
2022/03/11 02:00:38;;;;;;;10.30;6.90;;;4.40;83.40;;;;;;4983743;28;20219;-86
2022/03/11 02:03:05;;;;;;;13.25;7.70;;;4.70;83.00;;;;;;4982547;28;20193;-87
2022/03/11 02:05:32;;;;;;;13.70;7.53;;;4.70;83.10;;;;;;4982160;28;20208;-87
2022/03/11 02:07:59;;;;;;;12.10;8.02;;;4.40;83.80;;;;;;4980480;28;20250;-87
2022/03/11 02:10:27;;;;;;;11.65;7.75;;;4.40;84.50;;;;;;4980631;28;20204;-86
2022/03/11 02:12:54;;;;;;;12.05;8.25;;;4.60;86.10;;;;;;4981567;28;20223;-87
2022/03/11 02:15:20;;;;;;;10.65;8.05;;;4.30;85.30;;;;;;4981690;28;20299;-86
2022/03/11 02:17:52;;;;;;;12.10;8.13;;;4.50;86.40;;;;;;4982372;28;20563;-86
2022/03/11 02:20:19;;;;;;;11.52;7.57;;;4.30;86.80;;;;;;4985576;28;20683;-85
2022/03/11 02:22:52;;;;;;;12.52;7.53;;;3.90;86.90;;;;;;4984268;28;20295;-84
2022/03/11 02:25:21;;;;;;;13.27;8.15;;;4.50;88.00;;;;;;4981339;28;20671;-85
2022/03/11 02:27:47;;;;;;;12.00;7.57;;;4.30;87.90;;;;;;4979942;28;20243;-86
2022/03/11 02:30:16;;;;;;;12.90;8.23;;;4.20;88.20;;;;;;4980709;28;20613;-85
2022/03/11 02:32:43;;;;;;;12.45;8.02;;;4.30;88.80;;;;;;4981759;28;20243;-87
2022/03/11 02:35:11;;;;;;;14.15;7.78;;;4.50;89.50;;;;;;4980200;28;20209;-85
2022/03/11 02:37:38;;;;;;;15.00;8.82;;;4.20;89.50;;;;;;4980141;28;20718;-86
2022/03/11 02:40:07;;;;;;;12.90;7.47;;;4.40;90.20;;;;;;4983464;28;20185;-86
2022/03/11 02:42:35;;;;;;;12.93;8.07;;;4.10;90.40;;;;;;4981319;28;20247;-85
2022/03/11 02:45:04;;;;;;;13.88;8.35;;;4.00;90.90;;;;;;4980765;28;20299;-86
2022/03/11 02:47:31;;;;;;;15.80;9.52;;;4.00;91.10;;;;;;4996001;28;20224;-85
2022/03/11 02:49:58;;;;;;;17.33;9.98;;;4.20;91.40;;;;;;4982634;28;20324;-86
2022/03/11 02:52:25;;;;;;;12.85;8.95;;;4.00;91.40;;;;;;4979686;28;20315;-86
2022/03/11 02:54:52;;;;;;;13.25;9.00;;;4.10;91.70;;;;;;4980090;28;20719;-85
2022/03/11 02:57:20;;;;;;;15.70;9.10;;;4.00;91.90;;;;;;4979392;28;20220;-85
2022/03/11 02:59:48;;;;;;;16.15;10.55;;;4.30;92.20;;;;;;4980317;28;20219;-85
2022/03/11 03:02:15;;;;;;;17.95;11.10;;;4.20;92.30;;;;;;4998516;28;20209;-86
2022/03/11 03:04:43;;;;;;;18.23;10.57;;;4.10;92.40;;;;;;4981523;28;20209;-84
2022/03/11 03:07:11;;;;;;;14.15;8.82;;;4.10;92.90;;;;;;4980153;28;20223;-84
2022/03/11 03:09:41;;;;;;;15.82;10.00;;;4.20;92.60;;;;;;4979417;28;20219;-86
2022/03/11 03:12:10;;;;;;;22.17;10.57;;;4.20;92.70;;;;;;4979446;28;20220;-86
2022/03/11 03:14:37;;;;;;;21.08;10.45;;;4.00;92.90;;;;;;4980381;28;20219;-86
2022/03/11 03:17:06;;;;;;;15.48;9.77;;;4.00;93.10;;;;;;4980349;28;20295;-86
2022/03/11 03:19:35;;;;;;;14.80;10.23;;;4.30;93.30;;;;;;4997099;28;20208;-84
2022/03/11 03:22:02;;;;;;;16.98;11.05;;;4.20;93.40;;;;;;4982440;28;20215;-84
2022/03/11 03:24:29;;;;;;;16.73;10.55;;;4.10;93.70;;;;;;4985635;28;20303;-87
2022/03/11 03:26:56;;;;;;;19.02;10.70;;;4.10;94.00;;;;;;4988687;28;20213;-86
2022/03/11 03:40:30;;;;;;;15.95;11.52;;;4.10;94.50;;;;;;4786136;26;20303;-90
2022/03/11 03:43:44;;;;;;;19.48;13.30;;;4.00;94.90;;;;;;4971864;28;20213;-90
2022/03/11 03:46:19;;;;;;;22.27;12.40;;;4.00;95.20;;;;;;4969858;28;20205;-88
2022/03/11 03:49:04;;;;;;;19.73;13.30;;;4.00;95.70;;;;;;4973788;28;20229;-89
2022/03/11 03:51:44;;;;;;;19.35;12.82;;;3.90;95.40;;;;;;4963549;28;20271;-91
2022/03/11 03:55:08;;;;;;;;;;;;;;;;;;;;;
2022/03/11 04:01:05;;;;;;;19.73;13.70;;;3.90;95.90;;;;;;4970342;28;20256;-88
2022/03/11 04:07:07;;;;;;;20.65;13.05;;;3.90;96.30;;;;;;4962794;28;20232;-89
2022/03/11 04:13:19;;;;;;;20.85;14.05;;;3.70;96.90;;;;;;4962602;28;20653;-90
2022/03/11 04:15:59;;;;;;;21.00;13.00;;;3.90;97.20;;;;;;4956828;28;20680;-90
2022/03/11 04:19:17;;;;;;;22.10;12.40;;;3.80;97.00;;;;;;4956617;28;20239;-90
2022/03/11 04:22:03;;;;;;;21.13;13.50;;;3.90;97.30;;;;;;4957267;28;20225;-90
2022/03/11 04:27:45;;;;;;;25.05;14.77;;;3.70;97.20;;;;;;4971970;28;20197;-90
2022/03/11 04:36:59;;;;;;;;;;;;;;;;;;;;;
2022/03/11 04:46:48;;;;;;;22.77;13.73;;;3.80;97.60;;;;;;4921638;28;20280;-90
2022/03/11 04:49:53;;;;;;;26.92;14.98;;;4.00;97.70;;;;;;4976933;28;20245;-88
2022/03/11 04:52:53;;;;;;;29.08;14.98;;;3.80;97.60;;;;;;4959995;28;20300;-89
2022/03/11 05:11:02;;;;;;;28.08;14.98;;;3.60;98.60;;;;;;4818993;29;20216;-87
2022/03/11 06:59:07;;;;;;;23.35;13.10;;;3.80;94.40;;;;;;4909677;29;20222;-88
2022/03/11 07:14:21;;;;;;;17.70;10.20;;;4.10;90.90;;;;;;4813468;29;20244;-88
2022/03/11 07:56:58;;;;;;;15.15;8.50;;;4.80;78.90;;;;;;4847758;29;20209;-89
2022/03/11 07:59:29;;;;;;;16.98;10.07;;;4.80;78.60;;;;;;4967200;28;20253;-88
2022/03/11 08:01:56;;;;;;;19.05;9.90;;;4.90;78.40;;;;;;4973537;29;20209;-88
2022/03/11 08:04:24;;;;;;;17.23;9.60;;;4.90;78.30;;;;;;4975602;28;20206;-88
2022/03/11 08:06:54;;;;;;;16.65;9.20;;;4.60;78.70;;;;;;4970575;29;20209;-88
2022/03/11 08:09:27;;;;;;;13.23;8.68;;;5.10;77.70;;;;;;4968500;28;20300;-89
2022/03/11 08:11:58;;;;;;;15.10;8.52;;;4.90;76.90;;;;;;4967530;28;20287;-87
2022/03/11 08:14:25;;;;;;;17.48;9.55;;;5.30;77.10;;;;;;4966529;28;20304;-88
2022/03/11 08:16:52;;;;;;;17.00;9.27;;;5.40;77.30;;;;;;4966651;28;20210;-88
2022/03/11 08:19:21;;;;;;;14.98;9.95;;;5.40;77.80;;;;;;4966519;28;20245;-88
2022/03/11 08:21:52;;;;;;;13.85;8.75;;;5.80;78.00;;;;;;4965444;28;20220;-87
2022/03/11 08:24:46;;;;;;;13.23;8.93;;;5.70;76.90;;;;;;4966548;29;20213;-88
2022/03/11 08:27:26;;;;;;;15.63;9.23;;;5.80;76.20;;;;;;4961829;28;20210;-88
2022/03/11 08:29:53;;;;;;;13.15;8.77;;;5.90;76.20;;;;;;4960642;28;20303;-88
2022/03/11 08:33:06;;;;;;;16.02;9.82;;;5.90;75.70;;;;;;4966452;28;20204;-88
2022/03/11 08:39:19;;;;;;;20.30;9.73;;;6.10;75.30;;;;;;5211776;23;20248;-88
2022/03/11 08:44:51;;;;;;;16.25;9.73;;;6.20;75.00;;;;;;4980840;28;20219;-88
2022/03/11 08:47:26;;;;;;;20.63;10.73;;;6.30;75.10;;;;;;4980401;28;20287;-88
2022/03/11 08:50:11;;;;;;;15.38;10.25;;;6.40;75.00;;;;;;4983436;28;20243;-89
2022/03/11 08:52:59;;;;;;;14.98;8.80;;;6.60;74.90;;;;;;4989816;28;20248;-88
2022/03/11 08:55:43;;;;;;;17.75;11.98;;;6.30;74.70;;;;;;4987112;28;20204;-88
2022/03/11 08:58:24;;;;;;;15.50;9.00;;;6.40;74.60;;;;;;4981982;28;20224;-90
2022/03/11 09:01:16;;;;;;;15.32;10.23;;;6.50;74.60;;;;;;4981156;28;20200;-89
2022/03/11 09:03:47;;;;;;;28.25;12.68;;;6.60;73.90;;;;;;4981235;28;20200;-88
2022/03/11 09:06:20;;;;;;;73.28;18.25;;;6.70;75.20;;;;;;4992746;28;20225;-88
2022/03/11 09:09:00;;;;;;;19.23;11.00;;;6.90;74.10;;;;;;4992508;28;20308;-89
2022/03/11 09:11:28;;;;;;;27.90;10.53;;;6.80;73.80;;;;;;4980532;28;20828;-89
2022/03/11 09:14:03;;;;;;;32.33;14.05;;;7.10;73.10;;;;;;4979046;28;20857;-89
2022/03/11 09:16:33;;;;;;;15.00;10.10;;;7.20;73.20;;;;;;4978893;28;20213;-89
2022/03/11 09:19:34;;;;;;;13.32;9.60;;;7.30;72.80;;;;;;5112107;23;20259;-90
2022/03/11 09:22:07;;;;;;;23.70;11.63;;;7.20;72.10;;;;;;4979833;28;20227;-89
2022/03/11 09:24:39;;;;;;;16.48;10.27;;;7.30;72.80;;;;;;4985164;28;20208;-88
2022/03/11 09:27:23;;;;;;;18.40;10.77;;;7.40;71.70;;;;;;4985121;28;20238;-89
2022/03/11 09:29:52;;;;;;;20.60;11.70;;;7.50;71.90;;;;;;5007165;23;20558;-88
2022/03/11 09:32:23;;;;;;;16.77;11.23;;;7.60;73.10;;;;;;4986917;28;20464;-88
2022/03/11 09:34:50;;;;;;;13.87;8.80;;;7.70;71.80;;;;;;4987350;28;20495;-86
2022/03/11 09:37:17;;;;;;;21.93;10.13;;;7.70;71.10;;;;;;4985696;28;20492;-86
2022/03/11 09:39:45;;;;;;;14.45;9.82;;;7.80;70.50;;;;;;4986250;28;20448;-88
2022/03/11 09:42:12;;;;;;;15.10;9.90;;;8.00;70.00;;;;;;4989234;28;20263;-87
2022/03/11 09:44:40;;;;;;;11.53;9.07;;;8.20;68.70;;;;;;4990983;28;20452;-86
2022/03/11 09:47:09;;;;;;;16.57;9.93;;;8.20;68.40;;;;;;4998046;28;20436;-86
2022/03/11 09:49:37;;;;;;;18.23;9.30;;;8.30;68.70;;;;;;4992230;28;20910;-87
2022/03/11 09:52:06;;;;;;;14.37;9.00;;;8.50;68.00;;;;;;4988324;28;20843;-87
2022/03/11 09:54:38;;;;;;;12.40;9.20;;;8.60;67.40;;;;;;4986541;28;20547;-87
2022/03/11 09:57:06;;;;;;;13.70;9.47;;;8.70;66.10;;;;;;4984768;28;20866;-89
2022/03/11 09:59:33;;;;;;;13.93;7.60;;;8.70;65.30;;;;;;4985613;28;20560;-87
2022/03/11 10:02:00;;;;;;;13.97;9.30;;;8.70;64.10;;;;;;4993321;28;20539;-87
2022/03/11 10:04:39;;;;;;;16.90;9.00;;;8.60;63.90;;;;;;4995128;28;20446;-87
2022/03/11 10:10:20;;;;;;;13.07;8.83;;;8.70;63.10;;;;;;4995077;28;20483;-88
2022/03/11 10:12:52;;;;;;;14.17;8.97;;;8.70;62.80;;;;;;5001604;28;20468;-87
2022/03/11 10:15:28;;;;;;;16.20;9.77;;;8.80;62.80;;;;;;5001071;28;20459;-87
2022/03/11 10:17:55;;;;;;;13.90;9.10;;;8.90;62.80;;;;;;5000829;28;20459;-87
2022/03/11 10:20:26;;;;;;;13.03;7.57;;;8.90;62.70;;;;;;4990486;28;20445;-87
2022/03/11 10:22:55;;;;;;;14.00;8.90;;;9.00;62.00;;;;;;4988537;28;20476;-88
2022/03/11 10:25:33;;;;;;;14.33;9.37;;;9.00;62.20;;;;;;4986312;28;20942;-88
2022/03/11 10:28:04;;;;;;;12.03;9.10;;;9.10;61.60;;;;;;4987053;28;20889;-88
2022/03/11 10:30:32;;;;;;;14.57;8.27;;;9.20;61.50;;;;;;4987241;28;20518;-87
2022/03/11 10:33:05;;;;;;;11.27;8.50;;;9.40;60.80;;;;;;4985370;28;20943;-89
2022/03/11 10:35:38;;;;;;;14.33;8.83;;;9.50;60.70;;;;;;4991584;28;20480;-86
2022/03/11 10:38:08;;;;;;;13.43;9.57;;;9.50;60.70;;;;;;4990093;28;20491;-87
2022/03/11 10:40:38;;;;;;;13.90;8.60;;;9.50;61.50;;;;;;4991097;28;20486;-87
2022/03/11 10:43:14;;;;;;;15.10;9.17;;;9.80;60.40;;;;;;4988907;28;20452;-87
2022/03/11 10:45:46;;;;;;;15.80;9.50;;;9.80;62.20;;;;;;4988424;28;20436;-87
2022/03/11 10:48:13;;;;;;;15.17;9.27;;;9.90;61.30;;;;;;4987636;28;20511;-88
2022/03/11 10:50:42;;;;;;;18.57;9.67;;;10.00;59.50;;;;;;4984924;28;20460;-86
2022/03/11 10:53:13;;;;;;;11.53;8.63;;;10.00;59.00;;;;;;4988166;28;20599;-87
2022/03/11 10:55:43;;;;;;;14.40;9.63;;;10.20;58.80;;;;;;4993166;28;20476;-86
2022/03/11 10:58:16;;;;;;;15.83;8.60;;;10.30;58.70;;;;;;4990247;28;20480;-89
2022/03/11 11:00:44;;;;;;;14.33;8.80;;;10.30;58.40;;;;;;4991149;28;20448;-87
2022/03/11 11:03:13;;;;;;;14.53;8.80;;;10.30;58.10;;;;;;4988259;28;20482;-86
2022/03/11 11:05:42;;;;;;;14.87;9.30;;;10.30;58.20;;;;;;4989190;28;20481;-86
2022/03/11 11:08:10;;;;;;;12.80;9.60;;;10.30;58.30;;;;;;4996648;28;20456;-86
2022/03/11 11:10:38;;;;;;;14.83;9.33;;;10.40;58.20;;;;;;4990073;28;20975;-87
2022/03/11 11:13:06;;;;;;;14.67;9.83;;;10.40;58.40;;;;;;4991727;28;20468;-85
2022/03/11 11:15:33;;;;;;;13.30;9.60;;;10.50;58.10;;;;;;4983535;28;20539;-86
2022/03/11 11:18:06;;;;;;;17.13;9.63;;;10.60;58.00;;;;;;4984639;28;20475;-87
2022/03/11 11:20:45;;;;;;;15.13;10.20;;;10.70;57.90;;;;;;4986397;28;20451;-87
2022/03/11 11:23:12;;;;;;;14.17;7.73;;;10.70;57.90;;;;;;4990956;28;21002;-86
2022/03/11 11:25:41;;;;;;;13.60;9.50;;;10.70;57.40;;;;;;4986217;28;20433;-87
2022/03/11 11:28:11;;;;;;;15.20;9.33;;;10.60;57.90;;;;;;4995979;28;20498;-86
2022/03/11 11:30:39;;;;;;;12.80;8.83;;;10.60;58.20;;;;;;4985720;28;20516;-86
2022/03/11 11:33:06;;;;;;;16.40;10.00;;;10.70;58.30;;;;;;4986761;28;20460;-86
2022/03/11 11:35:36;;;;;;;13.80;8.63;;;10.90;57.80;;;;;;4991101;28;20508;-86
2022/03/11 11:38:07;;;;;;;15.80;10.23;;;11.00;57.60;;;;;;4989660;28;20419;-86
2022/03/11 11:40:37;;;;;;;14.80;10.20;;;11.10;57.50;;;;;;4994566;28;20484;-88
2022/03/11 11:43:27;;;;;;;15.30;9.70;;;11.20;57.40;;;;;;4985155;28;20424;-87
2022/03/11 11:45:57;;;;;;;14.83;9.60;;;11.40;56.90;;;;;;4983780;28;20414;-87
2022/03/11 11:48:58;;;;;;;16.03;10.40;;;11.50;56.20;;;;;;4986508;28;20515;-87
2022/03/11 11:52:04;;;;;;;16.17;8.20;;;11.40;56.40;;;;;;4993315;28;20444;-88
2022/03/11 11:54:42;;;;;;;18.20;10.00;;;11.20;56.20;;;;;;4991985;28;20480;-88
2022/03/11 11:57:24;;;;;;;13.90;8.80;;;11.20;56.50;;;;;;4990131;28;20459;-88
2022/03/11 11:59:51;;;;;;;16.37;9.17;;;11.40;56.40;;;;;;4986847;28;20500;-88
2022/03/11 12:02:35;;;;;;;20.93;10.47;;;11.30;56.00;;;;;;4986927;28;20446;-88
2022/03/11 12:05:21;;;;;;;15.17;10.20;;;11.20;56.10;;;;;;4987791;28;20419;-87
2022/03/11 12:07:50;;;;;;;13.83;7.43;;;11.20;56.40;;;;;;4989199;28;20446;-86
2022/03/11 12:10:25;;;;;;;13.33;9.40;;;11.40;56.20;;;;;;4987841;28;20454;-87
2022/03/11 12:12:58;;;;;;;13.87;8.77;;;11.40;56.20;;;;;;4985693;28;20444;-88
2022/03/11 12:15:25;;;;;;;13.10;9.20;;;11.50;56.50;;;;;;4983593;28;20561;-87
2022/03/11 12:17:58;;;;;;;9.70;6.17;;;11.50;56.40;;;;;;4984053;28;20986;-87
2022/03/11 12:20:33;;;;;;;15.10;9.20;;;11.50;56.00;;;;;;4983944;28;20444;-85
2022/03/11 12:23:03;;;;;;;17.03;10.03;;;11.60;56.30;;;;;;4985389;28;20440;-88
2022/03/11 12:25:33;;;;;;;14.33;9.80;;;11.70;56.20;;;;;;4984096;28;20475;-87
2022/03/11 12:28:10;;;;;;;13.30;9.00;;;11.80;56.10;;;;;;4984326;28;20504;-89
2022/03/11 12:31:03;;;;;;;11.23;6.70;;;11.80;56.10;;;;;;4986939;28;20436;-89
2022/03/11 12:33:57;;;;;;;15.60;8.97;;;11.80;55.90;;;;;;4988047;28;20548;-89
2022/03/11 12:36:28;;;;;;;17.40;9.97;;;11.90;56.20;;;;;;4985753;28;20461;-89
2022/03/11 12:38:57;;;;;;;14.97;9.53;;;12.00;56.20;;;;;;4988232;28;20851;-88
2022/03/11 12:41:37;;;;;;;11.93;8.73;;;12.00;55.90;;;;;;4988181;28;20543;-90
2022/03/11 12:44:10;;;;;;;14.00;7.60;;;12.00;55.90;;;;;;4990004;28;20447;-88
2022/03/11 12:46:43;;;;;;;14.93;8.80;;;12.10;55.80;;;;;;4995338;28;20454;-89
2022/03/11 12:49:14;;;;;;;18.33;8.60;;;12.20;56.00;;;;;;4991336;28;20487;-88
2022/03/11 12:51:45;;;;;;;15.63;11.03;;;12.20;55.80;;;;;;4990509;28;20860;-89
2022/03/11 12:54:36;;;;;;;14.27;10.07;;;12.40;55.90;;;;;;4986701;28;20439;-89
2022/03/11 12:57:11;;;;;;;14.53;9.73;;;12.30;55.70;;;;;;4981899;28;20551;-90
2022/03/11 12:59:50;;;;;;;14.30;9.23;;;12.30;55.70;;;;;;4992720;28;20479;-90
2022/03/11 13:05:18;;;;;;;15.37;9.00;;;12.50;55.70;;;;;;4986896;28;20434;-88
2022/03/11 13:07:46;;;;;;;15.17;10.40;;;12.50;55.60;;;;;;4998132;28;20416;-89
2022/03/11 13:10:24;;;;;;;13.23;9.63;;;12.60;55.50;;;;;;4994733;28;20472;-88
2022/03/11 13:12:52;;;;;;;15.10;10.17;;;12.60;55.30;;;;;;4997984;28;20441;-88
2022/03/11 13:18:20;;;;;;;13.63;9.87;;;12.80;55.50;;;;;;4986561;28;20418;-89
2022/03/11 13:20:56;;;;;;;16.10;9.20;;;12.80;55.30;;;;;;4987398;28;20476;-89
2022/03/11 13:23:28;;;;;;;18.03;10.57;;;12.90;55.10;;;;;;4992735;28;20439;-88
2022/03/11 13:26:18;;;;;;;18.80;11.13;;;13.00;55.10;;;;;;4994177;28;20474;-90
2022/03/11 13:28:58;;;;;;;9.97;5.37;;;13.10;55.00;;;;;;4992296;28;20462;-89
2022/03/11 13:31:27;;;;;;;14.07;9.50;;;13.10;54.70;;;;;;4999325;28;20452;-89
2022/03/11 13:34:11;;;;;;;17.50;11.17;;;13.20;54.80;;;;;;4999708;28;20415;-89
2022/03/11 13:36:54;;;;;;;16.83;10.13;;;13.20;55.10;;;;;;4996945;28;20430;-89
2022/03/11 13:39:22;;;;;;;13.83;10.47;;;13.20;55.10;;;;;;4995616;28;20480;-87
2022/03/11 13:41:52;;;;;;;14.43;10.40;;;13.30;55.30;;;;;;4994756;28;20426;-87
2022/03/11 13:44:24;;;;;;;14.90;10.13;;;13.50;55.00;;;;;;4991238;28;20451;-87
2022/03/11 13:47:00;;;;;;;17.63;12.23;;;13.40;54.50;;;;;;4992140;28;20784;-86
2022/03/11 13:49:51;;;;;;;15.37;11.43;;;13.40;54.90;;;;;;4991482;28;20459;-86
2022/03/11 13:52:19;;;;;;;14.40;10.47;;;13.50;54.80;;;;;;4993136;28;20419;-87
2022/03/11 13:54:54;;;;;;;20.60;10.53;;;13.60;54.70;;;;;;4992295;28;20506;-85
2022/03/11 13:57:25;;;;;;;14.40;10.77;;;13.60;54.30;;;;;;4987447;28;20410;-88
2022/03/11 13:59:54;;;;;;;17.60;10.77;;;13.80;54.40;;;;;;4994715;28;20454;-88
2022/03/11 14:02:23;;;;;;;14.77;10.07;;;13.70;54.00;;;;;;4994980;28;20448;-88
2022/03/11 14:05:08;;;;;;;15.20;10.37;;;13.70;54.30;;;;;;4997953;28;20450;-87
2022/03/11 14:07:38;;;;;;;15.87;10.80;;;13.70;53.80;;;;;;4996598;28;20418;-87
2022/03/11 14:10:13;;;;;;;16.90;10.60;;;13.70;53.80;;;;;;4994622;28;20536;-88
2022/03/11 14:12:42;;;;;;;21.63;12.80;;;13.80;54.30;;;;;;4992530;28;20484;-86
2022/03/11 14:15:14;;;;;;;15.97;10.97;;;13.80;54.10;;;;;;4989282;28;20483;-88
2022/03/11 14:17:43;;;;;;;14.47;10.00;;;13.90;53.90;;;;;;4989421;28;20504;-86
2022/03/11 14:20:16;;;;;;;12.00;7.73;;;13.90;53.40;;;;;;4990094;28;20574;-87
2022/03/11 14:22:55;;;;;;;15.00;10.47;;;14.00;53.20;;;;;;4991621;28;20478;-84
2022/03/11 14:25:25;;;;;;;14.77;9.80;;;14.00;53.40;;;;;;4997395;28;20469;-86
2022/03/11 14:27:53;;;;;;;17.17;10.50;;;14.00;53.10;;;;;;4997722;28;20423;-88
2022/03/11 14:30:22;;;;;;;18.07;9.93;;;14.10;53.00;;;;;;4989461;28;20515;-87
2022/03/11 14:32:52;;;;;;;13.57;9.13;;;14.20;53.00;;;;;;4989217;28;20415;-87
2022/03/11 14:35:19;;;;;;;16.83;10.53;;;14.20;52.80;;;;;;4994925;28;20435;-87
2022/03/11 14:37:46;;;;;;;17.27;10.97;;;14.20;52.70;;;;;;4992132;28;20543;-87
2022/03/11 14:40:14;;;;;;;13.50;9.73;;;14.40;52.50;;;;;;4992495;28;20500;-88
2022/03/11 14:42:41;;;;;;;13.50;9.60;;;14.40;52.40;;;;;;4992016;28;20552;-87
2022/03/11 14:45:13;;;;;;;13.07;7.87;;;14.40;52.40;;;;;;4993864;28;20418;-87
2022/03/11 14:47:42;;;;;;;14.00;10.17;;;14.40;52.30;;;;;;4997634;28;20417;-87
2022/03/11 14:50:11;;;;;;;20.20;11.50;;;14.40;52.90;;;;;;4995158;28;20438;-88
2022/03/11 14:52:39;;;;;;;14.97;9.73;;;14.50;52.60;;;;;;4989837;28;20487;-87
2022/03/11 14:55:07;;;;;;;12.73;8.70;;;14.60;51.90;;;;;;4994280;28;20522;-88
2022/03/11 14:57:38;;;;;;;13.67;9.80;;;14.60;51.80;;;;;;4997358;28;20422;-89
2022/03/11 15:00:06;;;;;;;17.73;10.87;;;14.60;51.90;;;;;;4991324;28;20462;-88
2022/03/11 15:02:37;;;;;;;16.80;11.33;;;14.60;52.40;;;;;;4989185;28;20430;-89
2022/03/11 15:05:05;;;;;;;15.83;11.60;;;14.60;52.00;;;;;;4987285;28;20516;-88
2022/03/11 15:07:33;;;;;;;19.63;13.23;;;14.60;52.10;;;;;;4989077;28;20455;-86
2022/03/11 15:10:02;;;;;;;17.13;10.57;;;14.70;51.90;;;;;;4988961;28;20435;-87
2022/03/11 15:12:34;;;;;;;19.73;11.87;;;14.80;51.20;;;;;;4994259;28;20438;-88
2022/03/11 15:15:09;;;;;;;14.97;10.13;;;14.70;50.40;;;;;;4991113;28;20431;-87
2022/03/11 15:17:44;;;;;;;17.20;13.07;;;14.60;50.00;;;;;;4991257;28;20459;-87
2022/03/11 15:20:17;;;;;;;18.87;12.10;;;14.70;50.20;;;;;;4995420;28;20443;-86
2022/03/11 15:22:46;;;;;;;22.87;13.70;;;14.60;50.10;;;;;;4993346;28;20487;-86
2022/03/11 15:25:16;;;;;;;20.90;13.33;;;14.60;49.70;;;;;;4992268;28;20445;-88
2022/03/11 15:28:03;;;;;;;15.60;11.00;;;14.50;49.80;;;;;;4995352;28;20464;-87
2022/03/11 15:30:30;;;;;;;16.50;12.57;;;14.30;50.00;;;;;;5009842;23;20485;-89
2022/03/11 15:33:01;;;;;;;17.37;12.20;;;14.00;50.00;;;;;;4987728;28;20460;-90
2022/03/11 15:35:34;;;;;;;16.03;11.73;;;13.90;50.50;;;;;;4995468;28;20447;-90
2022/03/11 15:38:01;;;;;;;16.67;11.33;;;13.90;50.90;;;;;;4989389;28;20443;-89
2022/03/11 15:40:29;;;;;;;16.93;12.30;;;13.70;50.90;;;;;;4992202;28;20478;-89
2022/03/11 15:43:03;;;;;;;19.80;11.80;;;13.70;51.60;;;;;;4988199;28;20454;-89
2022/03/11 15:45:35;;;;;;;20.70;11.50;;;13.80;51.20;;;;;;4987530;28;20442;-89
2022/03/11 15:48:19;;;;;;;15.70;11.37;;;13.90;51.20;;;;;;4986614;28;20425;-90
2022/03/11 15:50:46;;;;;;;16.50;12.03;;;13.80;51.10;;;;;;4983631;28;20458;-88
2022/03/11 15:53:13;;;;;;;17.73;10.90;;;13.80;51.40;;;;;;4986511;28;20588;-88
2022/03/11 15:55:40;;;;;;;19.63;12.23;;;13.70;51.40;;;;;;4989791;28;20469;-88
2022/03/11 15:58:07;;;;;;;19.80;12.90;;;13.60;51.60;;;;;;4979489;28;20519;-89
2022/03/11 16:00:34;;;;;;;14.60;10.77;;;13.60;51.70;;;;;;4980468;28;20470;-89
2022/03/11 16:03:02;;;;;;;19.27;12.30;;;13.70;51.80;;;;;;4991810;28;20526;-89
2022/03/11 16:05:31;;;;;;;16.67;11.77;;;13.50;51.40;;;;;;4983064;28;20495;-90
2022/03/11 16:07:59;;;;;;;15.73;11.17;;;13.40;51.40;;;;;;4982206;28;20450;-89
2022/03/11 16:10:31;;;;;;;14.30;10.33;;;13.40;51.80;;;;;;4982311;28;20832;-90
2022/03/11 16:13:08;;;;;;;17.30;11.50;;;13.40;51.90;;;;;;4983755;28;20470;-90
2022/03/11 16:15:39;;;;;;;18.50;11.93;;;13.40;52.00;;;;;;4981037;28;20453;-89
2022/03/11 16:18:13;;;;;;;16.40;11.23;;;13.40;51.90;;;;;;4984851;28;20429;-90
2022/03/11 16:20:40;;;;;;;19.07;10.57;;;13.40;52.20;;;;;;4994455;28;20480;-88
2022/03/11 16:23:10;;;;;;;16.70;11.40;;;13.30;51.80;;;;;;4994145;28;20499;-89
2022/03/11 16:25:37;;;;;;;22.10;12.30;;;13.20;52.40;;;;;;4986173;28;20890;-88
2022/03/11 16:28:04;;;;;;;15.80;11.47;;;13.10;52.00;;;;;;4981064;28;20427;-89
2022/03/11 16:30:32;;;;;;;18.30;11.40;;;13.10;52.50;;;;;;4983162;28;20483;-89
2022/03/11 16:32:59;;;;;;;18.97;12.30;;;13.10;52.10;;;;;;4985614;28;20522;-89
2022/03/11 16:35:28;;;;;;;17.80;10.70;;;13.00;52.10;;;;;;4987487;28;20436;-88
2022/03/11 16:37:56;;;;;;;14.50;11.03;;;13.00;52.10;;;;;;4980388;28;20873;-89
2022/03/11 16:40:23;;;;;;;18.07;10.97;;;13.00;52.20;;;;;;4980919;28;20508;-89
2022/03/11 16:42:50;;;;;;;14.73;11.20;;;13.00;52.30;;;;;;4980825;28;20790;-90
2022/03/11 16:45:17;;;;;;;24.40;12.50;;;13.00;52.20;;;;;;4982998;28;20423;-90
2022/03/11 16:47:45;;;;;;;19.27;12.23;;;13.00;52.10;;;;;;4991451;28;20444;-88
2022/03/11 16:50:13;;;;;;;18.40;11.47;;;12.90;52.50;;;;;;4994421;28;20453;-89
2022/03/11 16:52:41;;;;;;;17.63;12.23;;;12.90;52.50;;;;;;4991292;28;20466;-90